sensor_id;sensor_type;location;lat;lon;timestamp;temperature;humidity
67555;HTU21D;54385;53.516;49.456;2024-03-07T00:00:06;20.45;15.98
67555;HTU21D;54385;53.516;49.456;2024-03-07T00:02:43;20.44;15.97
67555;HTU21D;54385;53.516;49.456;2024-03-07T00:05:14;20.41;15.97
67555;HTU21D;54385;53.516;49.456;2024-03-07T00:07:41;20.41;15.99
67555;HTU21D;54385;53.516;49.456;2024-03-07T00:10:09;20.39;16.00
67555;HTU21D;54385;53.516;49.456;2024-03-07T00:12:37;20.39;15.99
67555;HTU21D;54385;53.516;49.456;2024-03-07T00:15:09;20.36;15.97
67555;HTU21D;54385;53.516;49.456;2024-03-07T00:17:37;20.34;15.99
67555;HTU21D;54385;53.516;49.456;2024-03-07T00:20:05;20.33;16.00
67555;HTU21D;54385;53.516;49.456;2024-03-07T00:22:35;20.35;16.00
67555;HTU21D;54385;53.516;49.456;2024-03-07T00:25:03;20.33;16.00
67555;HTU21D;54385;53.516;49.456;2024-03-07T00:27:33;20.31;16.00
67555;HTU21D;54385;53.516;49.456;2024-03-07T00:29:59;20.30;16.00
67555;HTU21D;54385;53.516;49.456;2024-03-07T00:32:26;20.29;16.00
67555;HTU21D;54385;53.516;49.456;2024-03-07T00:34:56;20.30;15.99
67555;HTU21D;54385;53.516;49.456;2024-03-07T00:37:25;20.29;16.00
67555;HTU21D;54385;53.516;49.456;2024-03-07T00:39:51;20.28;16.00
67555;HTU21D;54385;53.516;49.456;2024-03-07T00:42:18;20.30;15.98
67555;HTU21D;54385;53.516;49.456;2024-03-07T00:44:45;20.28;15.96
67555;HTU21D;54385;53.516;49.456;2024-03-07T00:47:11;20.28;15.96
67555;HTU21D;54385;53.516;49.456;2024-03-07T00:49:38;20.30;15.96
67555;HTU21D;54385;53.516;49.456;2024-03-07T00:52:04;20.29;15.93
67555;HTU21D;54385;53.516;49.456;2024-03-07T00:54:31;20.30;15.92
67555;HTU21D;54385;53.516;49.456;2024-03-07T00:56:58;20.29;15.90
67555;HTU21D;54385;53.516;49.456;2024-03-07T00:59:24;20.29;15.89
67555;HTU21D;54385;53.516;49.456;2024-03-07T01:01:51;20.30;15.89
67555;HTU21D;54385;53.516;49.456;2024-03-07T01:04:18;20.29;15.87
67555;HTU21D;54385;53.516;49.456;2024-03-07T01:06:45;20.27;15.87
67555;HTU21D;54385;53.516;49.456;2024-03-07T01:09:11;20.28;15.87
67555;HTU21D;54385;53.516;49.456;2024-03-07T01:11:44;20.28;15.85
67555;HTU21D;54385;53.516;49.456;2024-03-07T01:14:14;20.26;15.86
67555;HTU21D;54385;53.516;49.456;2024-03-07T01:16:41;20.26;15.86
67555;HTU21D;54385;53.516;49.456;2024-03-07T01:19:07;20.26;15.86
67555;HTU21D;54385;53.516;49.456;2024-03-07T01:21:34;20.26;15.85
67555;HTU21D;54385;53.516;49.456;2024-03-07T01:24:01;20.25;15.85
67555;HTU21D;54385;53.516;49.456;2024-03-07T01:26:28;20.24;15.85
67555;HTU21D;54385;53.516;49.456;2024-03-07T01:28:58;20.24;15.84
67555;HTU21D;54385;53.516;49.456;2024-03-07T01:31:25;20.24;15.83
67555;HTU21D;54385;53.516;49.456;2024-03-07T01:33:52;20.25;15.84
67555;HTU21D;54385;53.516;49.456;2024-03-07T01:36:19;20.25;15.82
67555;HTU21D;54385;53.516;49.456;2024-03-07T01:38:46;20.24;15.80
67555;HTU21D;54385;53.516;49.456;2024-03-07T01:41:13;20.26;15.80
67555;HTU21D;54385;53.516;49.456;2024-03-07T01:43:41;20.25;15.78
67555;HTU21D;54385;53.516;49.456;2024-03-07T01:46:12;20.26;15.78
67555;HTU21D;54385;53.516;49.456;2024-03-07T01:48:40;20.26;15.75
67555;HTU21D;54385;53.516;49.456;2024-03-07T01:51:07;20.27;15.75
67555;HTU21D;54385;53.516;49.456;2024-03-07T01:53:35;20.29;15.71
67555;HTU21D;54385;53.516;49.456;2024-03-07T01:56:02;20.29;15.71
67555;HTU21D;54385;53.516;49.456;2024-03-07T01:58:30;20.31;15.69
67555;HTU21D;54385;53.516;49.456;2024-03-07T02:00:59;20.34;15.64
67555;HTU21D;54385;53.516;49.456;2024-03-07T02:03:25;20.35;15.62
67555;HTU21D;54385;53.516;49.456;2024-03-07T02:05:52;20.36;15.59
67555;HTU21D;54385;53.516;49.456;2024-03-07T02:08:19;20.36;15.58
67555;HTU21D;54385;53.516;49.456;2024-03-07T02:10:46;20.35;15.59
67555;HTU21D;54385;53.516;49.456;2024-03-07T02:13:14;20.35;15.58
67555;HTU21D;54385;53.516;49.456;2024-03-07T02:15:41;20.37;15.55
67555;HTU21D;54385;53.516;49.456;2024-03-07T02:18:09;20.39;15.54
67555;HTU21D;54385;53.516;49.456;2024-03-07T02:20:35;20.40;15.52
67555;HTU21D;54385;53.516;49.456;2024-03-07T02:23:02;20.40;15.52
67555;HTU21D;54385;53.516;49.456;2024-03-07T02:25:30;20.41;15.50
67555;HTU21D;54385;53.516;49.456;2024-03-07T02:27:58;20.41;15.49
67555;HTU21D;54385;53.516;49.456;2024-03-07T02:30:24;20.43;15.46
67555;HTU21D;54385;53.516;49.456;2024-03-07T02:32:51;20.45;15.45
67555;HTU21D;54385;53.516;49.456;2024-03-07T02:35:21;20.44;15.44
67555;HTU21D;54385;53.516;49.456;2024-03-07T02:37:47;20.47;15.42
67555;HTU21D;54385;53.516;49.456;2024-03-07T02:40:17;20.47;15.41
67555;HTU21D;54385;53.516;49.456;2024-03-07T02:42:43;20.47;15.38
67555;HTU21D;54385;53.516;49.456;2024-03-07T02:45:10;20.46;15.39
67555;HTU21D;54385;53.516;49.456;2024-03-07T02:47:40;20.48;15.38
67555;HTU21D;54385;53.516;49.456;2024-03-07T02:50:09;20.49;15.35
67555;HTU21D;54385;53.516;49.456;2024-03-07T02:52:36;20.49;15.34
67555;HTU21D;54385;53.516;49.456;2024-03-07T02:55:12;20.49;15.30
67555;HTU21D;54385;53.516;49.456;2024-03-07T02:57:41;20.51;15.31
67555;HTU21D;54385;53.516;49.456;2024-03-07T03:00:11;20.53;15.27
67555;HTU21D;54385;53.516;49.456;2024-03-07T03:02:58;20.53;15.29
67555;HTU21D;54385;53.516;49.456;2024-03-07T03:05:25;20.53;15.29
67555;HTU21D;54385;53.516;49.456;2024-03-07T03:08:28;20.55;15.25
67555;HTU21D;54385;53.516;49.456;2024-03-07T03:10:55;20.54;15.27
67555;HTU21D;54385;53.516;49.456;2024-03-07T03:13:24;20.55;15.26
67555;HTU21D;54385;53.516;49.456;2024-03-07T03:15:54;20.56;15.26
67555;HTU21D;54385;53.516;49.456;2024-03-07T03:18:24;20.55;15.40
67555;HTU21D;54385;53.516;49.456;2024-03-07T03:20:51;20.57;16.06
67555;HTU21D;54385;53.516;49.456;2024-03-07T03:23:19;20.64;16.77
67555;HTU21D;54385;53.516;49.456;2024-03-07T03:25:46;20.71;17.38
67555;HTU21D;54385;53.516;49.456;2024-03-07T03:28:14;20.77;17.71
67555;HTU21D;54385;53.516;49.456;2024-03-07T03:30:41;20.83;18.14
67555;HTU21D;54385;53.516;49.456;2024-03-07T03:33:08;20.86;18.44
67555;HTU21D;54385;53.516;49.456;2024-03-07T03:35:37;20.90;18.67
67555;HTU21D;54385;53.516;49.456;2024-03-07T03:38:04;20.92;18.76
67555;HTU21D;54385;53.516;49.456;2024-03-07T03:40:31;20.98;18.86
67555;HTU21D;54385;53.516;49.456;2024-03-07T03:42:58;21.01;18.93
67555;HTU21D;54385;53.516;49.456;2024-03-07T03:45:25;21.02;19.00
67555;HTU21D;54385;53.516;49.456;2024-03-07T03:47:54;21.05;19.59
67555;HTU21D;54385;53.516;49.456;2024-03-07T03:50:28;21.11;20.95
67555;HTU21D;54385;53.516;49.456;2024-03-07T03:52:55;21.17;20.57
67555;HTU21D;54385;53.516;49.456;2024-03-07T03:55:25;21.24;20.76
67555;HTU21D;54385;53.516;49.456;2024-03-07T03:57:54;21.28;20.82
67555;HTU21D;54385;53.516;49.456;2024-03-07T04:00:24;21.32;21.13
67555;HTU21D;54385;53.516;49.456;2024-03-07T04:02:51;21.33;20.69
67555;HTU21D;54385;53.516;49.456;2024-03-07T04:05:19;21.33;20.62
67555;HTU21D;54385;53.516;49.456;2024-03-07T04:07:46;21.35;20.62
67555;HTU21D;54385;53.516;49.456;2024-03-07T04:10:15;21.38;20.98
67555;HTU21D;54385;53.516;49.456;2024-03-07T04:12:42;21.39;21.12
67555;HTU21D;54385;53.516;49.456;2024-03-07T04:15:11;21.45;21.15
67555;HTU21D;54385;53.516;49.456;2024-03-07T04:17:38;21.49;20.99
67555;HTU21D;54385;53.516;49.456;2024-03-07T04:20:06;21.53;20.78
67555;HTU21D;54385;53.516;49.456;2024-03-07T04:22:34;21.57;20.64
67555;HTU21D;54385;53.516;49.456;2024-03-07T04:25:01;21.60;20.48
67555;HTU21D;54385;53.516;49.456;2024-03-07T04:27:28;21.62;20.12
67555;HTU21D;54385;53.516;49.456;2024-03-07T04:29:58;21.67;19.86
67555;HTU21D;54385;53.516;49.456;2024-03-07T04:32:25;21.68;19.57
67555;HTU21D;54385;53.516;49.456;2024-03-07T04:34:52;21.70;19.27
67555;HTU21D;54385;53.516;49.456;2024-03-07T04:37:18;21.73;18.99
67555;HTU21D;54385;53.516;49.456;2024-03-07T04:39:45;21.75;18.79
67555;HTU21D;54385;53.516;49.456;2024-03-07T04:42:12;21.78;18.63
67555;HTU21D;54385;53.516;49.456;2024-03-07T04:44:40;21.80;18.35
67555;HTU21D;54385;53.516;49.456;2024-03-07T04:47:07;21.82;18.06
67555;HTU21D;54385;53.516;49.456;2024-03-07T04:49:35;21.85;17.88
67555;HTU21D;54385;53.516;49.456;2024-03-07T04:52:03;21.89;17.62
67555;HTU21D;54385;53.516;49.456;2024-03-07T04:54:31;21.92;17.44
67555;HTU21D;54385;53.516;49.456;2024-03-07T04:57:01;21.95;17.28
67555;HTU21D;54385;53.516;49.456;2024-03-07T04:59:28;21.98;17.17
67555;HTU21D;54385;53.516;49.456;2024-03-07T05:01:54;22.04;17.20
67555;HTU21D;54385;53.516;49.456;2024-03-07T05:04:21;22.10;16.91
67555;HTU21D;54385;53.516;49.456;2024-03-07T05:06:49;22.13;16.71
67555;HTU21D;54385;53.516;49.456;2024-03-07T05:09:16;22.18;16.54
67555;HTU21D;54385;53.516;49.456;2024-03-07T05:11:49;22.23;16.31
67555;HTU21D;54385;53.516;49.456;2024-03-07T05:14:19;22.27;16.15
67555;HTU21D;54385;53.516;49.456;2024-03-07T05:16:46;22.32;16.03
67555;HTU21D;54385;53.516;49.456;2024-03-07T05:19:28;22.35;16.06
67555;HTU21D;54385;53.516;49.456;2024-03-07T05:21:55;22.42;15.96
67555;HTU21D;54385;53.516;49.456;2024-03-07T05:24:22;22.50;15.86
67555;HTU21D;54385;53.516;49.456;2024-03-07T05:26:49;22.55;15.76
67555;HTU21D;54385;53.516;49.456;2024-03-07T05:29:17;22.63;15.66
67555;HTU21D;54385;53.516;49.456;2024-03-07T05:31:55;22.67;15.46
67555;HTU21D;54385;53.516;49.456;2024-03-07T05:34:24;22.73;15.51
67555;HTU21D;54385;53.516;49.456;2024-03-07T05:36:54;22.78;15.39
67555;HTU21D;54385;53.516;49.456;2024-03-07T05:39:23;22.86;15.29
67555;HTU21D;54385;53.516;49.456;2024-03-07T05:41:56;22.93;15.01
67555;HTU21D;54385;53.516;49.456;2024-03-07T05:44:24;23.00;15.04
67555;HTU21D;54385;53.516;49.456;2024-03-07T05:46:50;23.08;15.00
67555;HTU21D;54385;53.516;49.456;2024-03-07T05:49:17;23.16;15.04
67555;HTU21D;54385;53.516;49.456;2024-03-07T05:51:45;23.23;15.16
67555;HTU21D;54385;53.516;49.456;2024-03-07T05:54:14;23.29;15.48
67555;HTU21D;54385;53.516;49.456;2024-03-07T05:56:42;23.35;15.52
67555;HTU21D;54385;53.516;49.456;2024-03-07T05:59:09;23.42;15.42
67555;HTU21D;54385;53.516;49.456;2024-03-07T06:01:36;23.49;15.26
67555;HTU21D;54385;53.516;49.456;2024-03-07T06:04:07;23.59;15.05
67555;HTU21D;54385;53.516;49.456;2024-03-07T06:06:36;23.69;14.84
67555;HTU21D;54385;53.516;49.456;2024-03-07T06:09:08;23.80;14.55
67555;HTU21D;54385;53.516;49.456;2024-03-07T06:11:40;23.88;14.52
67555;HTU21D;54385;53.516;49.456;2024-03-07T06:14:10;23.95;14.42
67555;HTU21D;54385;53.516;49.456;2024-03-07T06:16:40;24.02;14.24
67555;HTU21D;54385;53.516;49.456;2024-03-07T06:19:10;24.11;14.20
67555;HTU21D;54385;53.516;49.456;2024-03-07T06:21:59;24.21;14.21
67555;HTU21D;54385;53.516;49.456;2024-03-07T06:24:27;24.30;14.10
67555;HTU21D;54385;53.516;49.456;2024-03-07T06:26:56;24.39;13.93
67555;HTU21D;54385;53.516;49.456;2024-03-07T06:29:26;24.48;13.77
67555;HTU21D;54385;53.516;49.456;2024-03-07T06:31:55;24.55;13.61
67555;HTU21D;54385;53.516;49.456;2024-03-07T06:34:25;24.63;13.45
67555;HTU21D;54385;53.516;49.456;2024-03-07T06:36:53;24.72;13.45
67555;HTU21D;54385;53.516;49.456;2024-03-07T06:39:24;24.79;13.43
67555;HTU21D;54385;53.516;49.456;2024-03-07T06:41:54;24.85;13.26
67555;HTU21D;54385;53.516;49.456;2024-03-07T06:44:23;24.90;13.13
67555;HTU21D;54385;53.516;49.456;2024-03-07T06:46:50;24.98;12.98
67555;HTU21D;54385;53.516;49.456;2024-03-07T06:49:22;25.03;12.74
67555;HTU21D;54385;53.516;49.456;2024-03-07T06:51:50;25.08;12.66
67555;HTU21D;54385;53.516;49.456;2024-03-07T06:54:17;25.13;12.54
67555;HTU21D;54385;53.516;49.456;2024-03-07T06:56:49;25.16;12.42
67555;HTU21D;54385;53.516;49.456;2024-03-07T06:59:16;25.22;12.30
67555;HTU21D;54385;53.516;49.456;2024-03-07T07:01:45;25.27;12.17
67555;HTU21D;54385;53.516;49.456;2024-03-07T07:04:12;25.32;12.02
67555;HTU21D;54385;53.516;49.456;2024-03-07T07:06:41;25.36;11.92
67555;HTU21D;54385;53.516;49.456;2024-03-07T07:09:09;25.40;11.82
67555;HTU21D;54385;53.516;49.456;2024-03-07T07:11:39;25.45;11.70
67555;HTU21D;54385;53.516;49.456;2024-03-07T07:14:12;25.49;11.33
67555;HTU21D;54385;53.516;49.456;2024-03-07T07:16:38;25.53;11.50
67555;HTU21D;54385;53.516;49.456;2024-03-07T07:19:11;25.59;11.42
67555;HTU21D;54385;53.516;49.456;2024-03-07T07:21:41;25.63;11.25
67555;HTU21D;54385;53.516;49.456;2024-03-07T07:24:11;25.66;11.15
67555;HTU21D;54385;53.516;49.456;2024-03-07T07:26:40;25.74;11.17
67555;HTU21D;54385;53.516;49.456;2024-03-07T07:29:07;25.76;11.11
67555;HTU21D;54385;53.516;49.456;2024-03-07T07:31:33;25.81;11.01
67555;HTU21D;54385;53.516;49.456;2024-03-07T07:34:00;25.87;10.94
67555;HTU21D;54385;53.516;49.456;2024-03-07T07:36:26;25.91;10.85
67555;HTU21D;54385;53.516;49.456;2024-03-07T07:38:53;25.95;10.79
67555;HTU21D;54385;53.516;49.456;2024-03-07T07:41:19;25.98;10.72
67555;HTU21D;54385;53.516;49.456;2024-03-07T07:43:48;26.01;10.65
67555;HTU21D;54385;53.516;49.456;2024-03-07T07:46:17;26.05;10.59
67555;HTU21D;54385;53.516;49.456;2024-03-07T07:48:44;26.07;10.56
67555;HTU21D;54385;53.516;49.456;2024-03-07T07:51:15;26.09;10.51
67555;HTU21D;54385;53.516;49.456;2024-03-07T07:53:45;26.10;10.33
67555;HTU21D;54385;53.516;49.456;2024-03-07T07:56:15;26.12;10.40
67555;HTU21D;54385;53.516;49.456;2024-03-07T07:58:42;26.12;10.37
67555;HTU21D;54385;53.516;49.456;2024-03-07T08:01:11;26.15;10.36
67555;HTU21D;54385;53.516;49.456;2024-03-07T08:03:38;26.15;10.32
67555;HTU21D;54385;53.516;49.456;2024-03-07T08:06:11;26.16;10.30
67555;HTU21D;54385;53.516;49.456;2024-03-07T08:08:58;26.17;10.28
67555;HTU21D;54385;53.516;49.456;2024-03-07T08:11:25;26.18;10.23
67555;HTU21D;54385;53.516;49.456;2024-03-07T08:13:53;26.20;10.20
67555;HTU21D;54385;53.516;49.456;2024-03-07T08:16:59;26.21;10.17
67555;HTU21D;54385;53.516;49.456;2024-03-07T08:19:26;26.24;10.13
67555;HTU21D;54385;53.516;49.456;2024-03-07T08:21:52;26.26;10.08
67555;HTU21D;54385;53.516;49.456;2024-03-07T08:24:23;26.27;10.06
67555;HTU21D;54385;53.516;49.456;2024-03-07T08:27:19;26.32;9.82
67555;HTU21D;54385;53.516;49.456;2024-03-07T08:29:48;26.34;10.00
67555;HTU21D;54385;53.516;49.456;2024-03-07T08:32:18;26.36;9.98
67555;HTU21D;54385;53.516;49.456;2024-03-07T08:34:45;26.37;9.96
67555;HTU21D;54385;53.516;49.456;2024-03-07T08:37:17;26.37;9.96
67555;HTU21D;54385;53.516;49.456;2024-03-07T08:39:47;26.39;9.95
67555;HTU21D;54385;53.516;49.456;2024-03-07T08:42:17;26.39;9.91
67555;HTU21D;54385;53.516;49.456;2024-03-07T08:44:43;26.43;9.88
67555;HTU21D;54385;53.516;49.456;2024-03-07T08:47:13;26.46;9.84
67555;HTU21D;54385;53.516;49.456;2024-03-07T08:49:42;26.50;9.74
67555;HTU21D;54385;53.516;49.456;2024-03-07T08:52:09;26.50;9.79
67555;HTU21D;54385;53.516;49.456;2024-03-07T08:55:06;26.52;9.54
67555;HTU21D;54385;53.516;49.456;2024-03-07T08:57:44;26.54;9.70
67555;HTU21D;54385;53.516;49.456;2024-03-07T09:00:40;26.57;9.55
67555;HTU21D;54385;53.516;49.456;2024-03-07T09:03:06;26.58;9.58
67555;HTU21D;54385;53.516;49.456;2024-03-07T09:05:35;26.60;9.54
67555;HTU21D;54385;53.516;49.456;2024-03-07T09:08:02;26.62;9.46
67555;HTU21D;54385;53.516;49.456;2024-03-07T09:10:29;26.61;9.44
67555;HTU21D;54385;53.516;49.456;2024-03-07T09:13:16;26.62;9.39
67555;HTU21D;54385;53.516;49.456;2024-03-07T09:15:42;26.63;9.35
67555;HTU21D;54385;53.516;49.456;2024-03-07T09:18:09;26.65;9.32
67555;HTU21D;54385;53.516;49.456;2024-03-07T09:20:35;26.66;9.30
67555;HTU21D;54385;53.516;49.456;2024-03-07T09:23:02;26.67;9.28
67555;HTU21D;54385;53.516;49.456;2024-03-07T09:25:32;26.68;9.28
67555;HTU21D;54385;53.516;49.456;2024-03-07T09:27:59;26.69;9.30
67555;HTU21D;54385;53.516;49.456;2024-03-07T09:30:30;26.71;9.14
67555;HTU21D;54385;53.516;49.456;2024-03-07T09:33:41;26.77;9.16
67555;HTU21D;54385;53.516;49.456;2024-03-07T09:36:06;26.78;9.14
67555;HTU21D;54385;53.516;49.456;2024-03-07T09:38:34;26.78;9.35
67555;HTU21D;54385;53.516;49.456;2024-03-07T09:41:01;26.77;9.34
67555;HTU21D;54385;53.516;49.456;2024-03-07T09:43:29;26.82;9.30
67555;HTU21D;54385;53.516;49.456;2024-03-07T09:45:57;26.82;9.32
67555;HTU21D;54385;53.516;49.456;2024-03-07T09:48:24;26.85;9.27
67555;HTU21D;54385;53.516;49.456;2024-03-07T09:50:58;26.87;9.26
67555;HTU21D;54385;53.516;49.456;2024-03-07T09:53:26;26.89;9.24
67555;HTU21D;54385;53.516;49.456;2024-03-07T09:55:54;26.92;9.21
67555;HTU21D;54385;53.516;49.456;2024-03-07T09:58:21;26.93;9.17
67555;HTU21D;54385;53.516;49.456;2024-03-07T10:00:49;26.93;9.14
67555;HTU21D;54385;53.516;49.456;2024-03-07T10:03:17;26.92;9.13
67555;HTU21D;54385;53.516;49.456;2024-03-07T10:05:46;26.94;9.13
67555;HTU21D;54385;53.516;49.456;2024-03-07T10:08:13;26.94;9.14
67555;HTU21D;54385;53.516;49.456;2024-03-07T10:10:40;26.96;9.10
67555;HTU21D;54385;53.516;49.456;2024-03-07T10:13:06;26.95;9.05
67555;HTU21D;54385;53.516;49.456;2024-03-07T10:15:34;26.95;9.05
67555;HTU21D;54385;53.516;49.456;2024-03-07T10:18:01;26.94;9.03
67555;HTU21D;54385;53.516;49.456;2024-03-07T10:20:27;26.93;9.04
67555;HTU21D;54385;53.516;49.456;2024-03-07T10:22:53;26.91;9.05
67555;HTU21D;54385;53.516;49.456;2024-03-07T10:25:24;26.91;8.99
67555;HTU21D;54385;53.516;49.456;2024-03-07T10:27:53;26.89;9.10
67555;HTU21D;54385;53.516;49.456;2024-03-07T10:30:20;26.87;9.09
67555;HTU21D;54385;53.516;49.456;2024-03-07T10:32:53;26.84;8.99
67555;HTU21D;54385;53.516;49.456;2024-03-07T10:35:21;26.83;9.08
67555;HTU21D;54385;53.516;49.456;2024-03-07T10:37:53;26.81;9.06
67555;HTU21D;54385;53.516;49.456;2024-03-07T10:40:20;26.78;9.09
67555;HTU21D;54385;53.516;49.456;2024-03-07T10:42:48;26.75;9.08
67555;HTU21D;54385;53.516;49.456;2024-03-07T10:45:19;26.70;9.06
67555;HTU21D;54385;53.516;49.456;2024-03-07T10:47:53;26.65;8.99
67555;HTU21D;54385;53.516;49.456;2024-03-07T10:50:35;26.61;9.05
67555;HTU21D;54385;53.516;49.456;2024-03-07T10:53:20;26.55;8.99
67555;HTU21D;54385;53.516;49.456;2024-03-07T10:59:04;26.45;8.85
67555;HTU21D;54385;53.516;49.456;2024-03-07T11:01:36;26.39;8.99
67555;HTU21D;54385;53.516;49.456;2024-03-07T11:04:05;26.35;9.03
67555;HTU21D;54385;53.516;49.456;2024-03-07T11:06:33;26.30;9.01
67555;HTU21D;54385;53.516;49.456;2024-03-07T11:09:02;26.25;9.01
67555;HTU21D;54385;53.516;49.456;2024-03-07T11:11:39;26.21;8.98
67555;HTU21D;54385;53.516;49.456;2024-03-07T11:14:11;26.15;9.01
67555;HTU21D;54385;53.516;49.456;2024-03-07T11:16:39;26.08;9.05
67555;HTU21D;54385;53.516;49.456;2024-03-07T11:19:19;26.02;8.95
67555;HTU21D;54385;53.516;49.456;2024-03-07T11:21:50;25.92;9.11
67555;HTU21D;54385;53.516;49.456;2024-03-07T11:24:27;25.88;9.00
67555;HTU21D;54385;53.516;49.456;2024-03-07T11:27:02;25.83;9.08
67555;HTU21D;54385;53.516;49.456;2024-03-07T11:29:50;25.77;9.01
67555;HTU21D;54385;53.516;49.456;2024-03-07T11:32:20;25.74;9.14
67555;HTU21D;54385;53.516;49.456;2024-03-07T11:34:49;25.68;9.14
67555;HTU21D;54385;53.516;49.456;2024-03-07T11:37:39;25.61;9.07
67555;HTU21D;54385;53.516;49.456;2024-03-07T11:42:48;25.49;9.24
67555;HTU21D;54385;53.516;49.456;2024-03-07T11:45:15;25.46;9.23
67555;HTU21D;54385;53.516;49.456;2024-03-07T11:47:55;25.44;9.21
67555;HTU21D;54385;53.516;49.456;2024-03-07T11:50:41;25.38;9.22
67555;HTU21D;54385;53.516;49.456;2024-03-07T11:53:09;25.37;9.28
67555;HTU21D;54385;53.516;49.456;2024-03-07T11:55:38;25.32;9.31
67555;HTU21D;54385;53.516;49.456;2024-03-07T11:58:16;25.30;9.32
67555;HTU21D;54385;53.516;49.456;2024-03-07T12:00:49;25.27;9.34
67555;HTU21D;54385;53.516;49.456;2024-03-07T12:03:20;25.21;9.37
67555;HTU21D;54385;53.516;49.456;2024-03-07T12:05:54;25.18;9.38
67555;HTU21D;54385;53.516;49.456;2024-03-07T12:08:20;25.13;9.37
67555;HTU21D;54385;53.516;49.456;2024-03-07T12:10:52;25.08;9.34
67555;HTU21D;54385;53.516;49.456;2024-03-07T12:13:22;25.04;9.38
67555;HTU21D;54385;53.516;49.456;2024-03-07T12:15:51;25.00;9.35
67555;HTU21D;54385;53.516;49.456;2024-03-07T12:18:21;24.94;9.36
67555;HTU21D;54385;53.516;49.456;2024-03-07T12:20:49;24.89;9.37
67555;HTU21D;54385;53.516;49.456;2024-03-07T12:23:24;24.84;9.37
67555;HTU21D;54385;53.516;49.456;2024-03-07T12:26:01;24.79;9.25
67555;HTU21D;54385;53.516;49.456;2024-03-07T12:28:31;24.77;9.34
67555;HTU21D;54385;53.516;49.456;2024-03-07T12:31:00;24.76;9.34
67555;HTU21D;54385;53.516;49.456;2024-03-07T12:33:31;24.76;9.30
67555;HTU21D;54385;53.516;49.456;2024-03-07T12:36:05;24.78;9.24
67555;HTU21D;54385;53.516;49.456;2024-03-07T12:38:38;24.83;9.21
67555;HTU21D;54385;53.516;49.456;2024-03-07T12:41:08;24.87;9.15
67555;HTU21D;54385;53.516;49.456;2024-03-07T12:43:52;24.89;9.14
67555;HTU21D;54385;53.516;49.456;2024-03-07T12:46:19;24.90;9.09
67555;HTU21D;54385;53.516;49.456;2024-03-07T12:48:48;24.92;9.05
67555;HTU21D;54385;53.516;49.456;2024-03-07T12:51:15;24.95;9.02
67555;HTU21D;54385;53.516;49.456;2024-03-07T12:53:44;24.99;8.98
67555;HTU21D;54385;53.516;49.456;2024-03-07T12:56:12;24.97;8.98
67555;HTU21D;54385;53.516;49.456;2024-03-07T12:58:45;24.99;8.98
67555;HTU21D;54385;53.516;49.456;2024-03-07T13:01:12;24.95;8.98
67555;HTU21D;54385;53.516;49.456;2024-03-07T13:03:39;24.97;8.98
67555;HTU21D;54385;53.516;49.456;2024-03-07T13:06:05;24.98;8.97
67555;HTU21D;54385;53.516;49.456;2024-03-07T13:08:32;24.95;8.95
67555;HTU21D;54385;53.516;49.456;2024-03-07T13:10:58;24.97;8.92
67555;HTU21D;54385;53.516;49.456;2024-03-07T13:13:25;25.10;8.82
67555;HTU21D;54385;53.516;49.456;2024-03-07T13:15:52;25.21;8.70
67555;HTU21D;54385;53.516;49.456;2024-03-07T13:18:20;25.32;8.60
67555;HTU21D;54385;53.516;49.456;2024-03-07T13:20:50;25.25;8.60
67555;HTU21D;54385;53.516;49.456;2024-03-07T13:23:17;25.16;8.71
67555;HTU21D;54385;53.516;49.456;2024-03-07T13:25:43;25.08;8.76
67555;HTU21D;54385;53.516;49.456;2024-03-07T13:28:12;24.94;8.84
67555;HTU21D;54385;53.516;49.456;2024-03-07T13:30:50;24.87;8.95
67555;HTU21D;54385;53.516;49.456;2024-03-07T13:33:17;24.77;9.01
67555;HTU21D;54385;53.516;49.456;2024-03-07T13:35:44;24.65;9.09
67555;HTU21D;54385;53.516;49.456;2024-03-07T13:38:10;24.55;9.18
67555;HTU21D;54385;53.516;49.456;2024-03-07T13:40:37;24.50;9.19
67555;HTU21D;54385;53.516;49.456;2024-03-07T13:43:07;24.46;9.20
67555;HTU21D;54385;53.516;49.456;2024-03-07T13:45:35;24.39;9.22
67555;HTU21D;54385;53.516;49.456;2024-03-07T13:48:06;24.30;9.29
67555;HTU21D;54385;53.516;49.456;2024-03-07T13:50:34;24.24;9.32
67555;HTU21D;54385;53.516;49.456;2024-03-07T13:53:01;24.17;9.36
67555;HTU21D;54385;53.516;49.456;2024-03-07T14:07:50;23.80;9.64
67555;HTU21D;54385;53.516;49.456;2024-03-07T14:16:18;23.37;9.98
67555;HTU21D;54385;53.516;49.456;2024-03-07T14:19:21;23.21;10.09
67555;HTU21D;54385;53.516;49.456;2024-03-07T14:27:40;22.82;10.40
67555;HTU21D;54385;53.516;49.456;2024-03-07T14:32:56;22.62;10.49
67555;HTU21D;54385;53.516;49.456;2024-03-07T14:40:40;22.33;10.66
67555;HTU21D;54385;53.516;49.456;2024-03-07T14:43:06;22.25;10.70
67555;HTU21D;54385;53.516;49.456;2024-03-07T14:45:37;22.19;10.72
67555;HTU21D;54385;53.516;49.456;2024-03-07T14:48:05;22.13;10.78
67555;HTU21D;54385;53.516;49.456;2024-03-07T14:50:37;22.05;10.80
67555;HTU21D;54385;53.516;49.456;2024-03-07T14:53:06;21.99;10.84
67555;HTU21D;54385;53.516;49.456;2024-03-07T14:55:41;21.93;10.86
67555;HTU21D;54385;53.516;49.456;2024-03-07T14:58:07;21.89;10.89
67555;HTU21D;54385;53.516;49.456;2024-03-07T15:00:39;21.84;10.91
67555;HTU21D;54385;53.516;49.456;2024-03-07T15:03:11;21.81;10.91
67555;HTU21D;54385;53.516;49.456;2024-03-07T15:05:43;21.78;10.94
67555;HTU21D;54385;53.516;49.456;2024-03-07T15:08:13;21.74;10.95
67555;HTU21D;54385;53.516;49.456;2024-03-07T15:10:47;21.68;10.97
67555;HTU21D;54385;53.516;49.456;2024-03-07T15:13:15;21.64;10.97
67555;HTU21D;54385;53.516;49.456;2024-03-07T15:15:43;21.59;10.98
67555;HTU21D;54385;53.516;49.456;2024-03-07T15:18:11;21.55;10.96
67555;HTU21D;54385;53.516;49.456;2024-03-07T15:20:38;21.52;10.98
67555;HTU21D;54385;53.516;49.456;2024-03-07T15:23:04;21.49;10.98
67555;HTU21D;54385;53.516;49.456;2024-03-07T15:25:32;21.46;10.98
67555;HTU21D;54385;53.516;49.456;2024-03-07T15:27:59;21.43;10.98
67555;HTU21D;54385;53.516;49.456;2024-03-07T15:30:27;21.40;10.97
67555;HTU21D;54385;53.516;49.456;2024-03-07T15:33:03;21.36;10.98
67555;HTU21D;54385;53.516;49.456;2024-03-07T15:35:33;21.35;10.97
67555;HTU21D;54385;53.516;49.456;2024-03-07T15:38:01;21.32;10.98
67555;HTU21D;54385;53.516;49.456;2024-03-07T15:40:30;21.30;10.95
67555;HTU21D;54385;53.516;49.456;2024-03-07T15:42:59;21.27;10.94
67555;HTU21D;54385;53.516;49.456;2024-03-07T15:45:28;21.24;10.96
67555;HTU21D;54385;53.516;49.456;2024-03-07T15:47:57;21.22;10.94
67555;HTU21D;54385;53.516;49.456;2024-03-07T15:50:44;21.19;10.93
67555;HTU21D;54385;53.516;49.456;2024-03-07T15:53:10;21.18;10.94
67555;HTU21D;54385;53.516;49.456;2024-03-07T15:55:37;21.16;10.94
67555;HTU21D;54385;53.516;49.456;2024-03-07T15:58:04;21.14;10.95
67555;HTU21D;54385;53.516;49.456;2024-03-07T16:00:31;21.10;10.97